createdAt,value
2023-01-19T00:00:06.153Z,32.33
2023-01-19T00:02:54.953Z,32.83
2023-01-19T00:05:22.116Z,32.28
2023-01-19T00:07:49.261Z,33.38
2023-01-19T00:10:16.384Z,32.33
2023-01-19T00:12:43.481Z,34.45
2023-01-19T00:15:10.821Z,31.58
2023-01-19T00:17:40.938Z,32.95
2023-01-19T00:20:09.478Z,32.60
2023-01-19T00:22:36.591Z,31.45
2023-01-19T00:25:03.774Z,33.72
2023-01-19T00:27:34.894Z,33.20
2023-01-19T00:30:02.244Z,34.88
2023-01-19T00:32:29.352Z,32.47
2023-01-19T00:34:56.140Z,34.05
2023-01-19T00:37:23.316Z,35.72
2023-01-19T00:39:50.167Z,35.88
2023-01-19T00:42:35.587Z,35.92
2023-01-19T00:45:02.344Z,36.42
2023-01-19T00:47:29.478Z,35.20
2023-01-19T00:49:56.479Z,34.15
2023-01-19T00:52:23.496Z,36.13
2023-01-19T00:54:50.315Z,36.75
2023-01-19T00:57:19.177Z,38.97
2023-01-19T00:59:45.934Z,42.25
2023-01-19T01:02:13.240Z,40.55
2023-01-19T01:04:40.137Z,41.25
2023-01-19T01:07:07.253Z,40.55
2023-01-19T01:09:34.004Z,40.35
2023-01-19T01:12:01.140Z,42.17
2023-01-19T01:14:27.953Z,41.75
2023-01-19T01:16:55.165Z,42.53
2023-01-19T01:19:21.956Z,44.70
2023-01-19T01:21:49.119Z,44.17
2023-01-19T01:24:16.349Z,44.45
2023-01-19T01:26:43.453Z,44.42
2023-01-19T01:29:10.253Z,46.95
2023-01-19T01:31:37.364Z,48.45
2023-01-19T01:34:04.451Z,47.28
2023-01-19T01:36:33.466Z,48.80
2023-01-19T01:39:00.547Z,44.80
2023-01-19T01:41:27.715Z,45.00
2023-01-19T01:43:58.662Z,47.95
2023-01-19T01:46:26.521Z,46.60
2023-01-19T01:49:13.819Z,46.55
2023-01-19T01:51:42.105Z,47.90
2023-01-19T01:54:19.009Z,45.72
2023-01-19T01:56:51.514Z,46.17
2023-01-19T01:59:29.349Z,46.13
2023-01-19T02:02:16.064Z,47.88
2023-01-19T02:04:54.279Z,48.58
2023-01-19T02:07:48.842Z,49.80
2023-01-19T02:10:34.160Z,50.80
2023-01-19T02:13:22.425Z,51.53
2023-01-19T02:15:51.055Z,50.67
2023-01-19T02:18:18.840Z,47.40
2023-01-19T02:20:53.870Z,49.63
2023-01-19T02:25:54.047Z,47.92
2023-01-19T02:28:21.195Z,47.75
2023-01-19T02:30:47.948Z,50.63
2023-01-19T02:33:15.057Z,50.03
2023-01-19T02:35:41.890Z,50.63
2023-01-19T02:38:08.989Z,53.08
2023-01-19T02:40:35.798Z,51.50
2023-01-19T02:43:03.410Z,53.28
2023-01-19T02:45:30.337Z,50.75
2023-01-19T02:47:57.397Z,50.92
2023-01-19T02:50:39.426Z,48.95
2023-01-19T02:53:14.370Z,51.10
2023-01-19T02:55:41.156Z,47.72
2023-01-19T02:58:12.046Z,47.90
2023-01-19T03:00:52.418Z,47.75
2023-01-19T03:03:27.774Z,49.78
2023-01-19T03:06:14.845Z,49.78
2023-01-19T03:08:48.000Z,50.45
2023-01-19T03:11:15.024Z,52.17
2023-01-19T03:13:44.025Z,50.88
2023-01-19T03:16:29.738Z,48.67
2023-01-19T03:19:00.062Z,46.80
2023-01-19T03:21:27.618Z,48.90
2023-01-19T03:23:55.997Z,49.95
2023-01-19T03:26:26.250Z,48.30
2023-01-19T03:28:53.360Z,46.30
2023-01-19T03:31:22.969Z,47.72
2023-01-19T03:33:51.958Z,48.35
2023-01-19T03:36:22.918Z,47.42
2023-01-19T03:38:50.206Z,44.63
2023-01-19T03:41:17.867Z,44.53
2023-01-19T03:43:44.949Z,47.47
2023-01-19T03:46:11.820Z,47.15
2023-01-19T03:48:39.001Z,45.90
2023-01-19T03:51:06.775Z,47.00
2023-01-19T03:53:33.893Z,43.90
2023-01-19T03:56:00.725Z,41.95
2023-01-19T03:58:28.354Z,44.50
2023-01-19T04:00:55.228Z,43.58
2023-01-19T04:03:22.309Z,42.63
2023-01-19T04:05:49.331Z,43.95
2023-01-19T04:08:16.449Z,40.35
2023-01-19T04:10:43.220Z,42.47
2023-01-19T04:13:10.568Z,42.25
2023-01-19T04:15:37.387Z,44.78
2023-01-19T04:18:05.407Z,41.78
2023-01-19T04:20:32.152Z,42.30
2023-01-19T04:23:00.059Z,41.17
2023-01-19T04:25:27.908Z,42.05
2023-01-19T04:27:55.273Z,42.20
2023-01-19T04:30:22.684Z,41.20
2023-01-19T04:32:49.811Z,40.90
2023-01-19T04:35:17.054Z,41.30
2023-01-19T04:37:45.056Z,40.83
2023-01-19T04:40:12.205Z,40.33
2023-01-19T04:42:39.344Z,40.83
2023-01-19T04:45:06.543Z,42.45
2023-01-19T04:47:33.656Z,41.15
2023-01-19T04:50:00.376Z,39.45
2023-01-19T04:52:35.090Z,42.17
2023-01-19T04:55:02.975Z,40.88
2023-01-19T04:57:30.485Z,39.45
2023-01-19T04:59:57.848Z,39.75
2023-01-19T05:02:25.164Z,41.35
2023-01-19T05:04:52.026Z,39.63
2023-01-19T05:07:19.114Z,39.15
2023-01-19T05:09:45.838Z,43.20
2023-01-19T05:12:12.887Z,37.88
2023-01-19T05:14:39.635Z,39.45
2023-01-19T05:17:06.727Z,40.80
2023-01-19T05:19:33.476Z,39.00
2023-01-19T05:22:00.527Z,37.33
2023-01-19T05:24:27.251Z,38.00
2023-01-19T05:26:54.344Z,38.05
2023-01-19T05:29:21.183Z,42.03
2023-01-19T05:31:48.253Z,40.05
2023-01-19T05:34:15.305Z,38.95
2023-01-19T05:36:42.433Z,40.70
2023-01-19T05:39:09.231Z,41.40
2023-01-19T05:41:36.268Z,40.75
2023-01-19T05:44:03.095Z,41.70
2023-01-19T05:46:30.170Z,41.13
2023-01-19T05:48:57.018Z,42.25
2023-01-19T05:51:24.131Z,45.45
2023-01-19T05:53:50.864Z,44.13
2023-01-19T05:56:17.936Z,42.20
2023-01-19T05:58:44.658Z,43.25
2023-01-19T06:01:11.772Z,46.38
2023-01-19T06:03:39.600Z,45.25
2023-01-19T06:06:06.992Z,46.40
2023-01-19T06:08:33.808Z,42.75
2023-01-19T06:11:00.899Z,42.00
2023-01-19T06:13:27.698Z,43.22
2023-01-19T06:15:58.927Z,43.47
2023-01-19T06:18:25.867Z,41.13
2023-01-19T06:20:58.571Z,41.72
2023-01-19T06:23:26.430Z,41.53
2023-01-19T06:25:53.480Z,39.47
2023-01-19T06:28:20.259Z,42.33
2023-01-19T06:30:50.924Z,39.15
2023-01-19T06:33:17.999Z,41.08
2023-01-19T06:35:48.314Z,40.47
2023-01-19T06:38:15.142Z,41.83
2023-01-19T06:40:42.224Z,41.28
2023-01-19T06:43:09.158Z,40.28
2023-01-19T06:45:36.559Z,40.33
2023-01-19T06:48:04.237Z,42.22
2023-01-19T06:50:31.375Z,44.50
2023-01-19T06:52:58.689Z,40.42
2023-01-19T06:55:27.689Z,43.78
2023-01-19T06:57:58.916Z,42.40
2023-01-19T07:00:26.345Z,41.40
2023-01-19T07:02:53.161Z,40.17
2023-01-19T07:05:22.106Z,39.35
2023-01-19T07:07:53.170Z,39.13
2023-01-19T07:10:20.213Z,38.50
2023-01-19T07:12:47.498Z,39.63
2023-01-19T07:15:15.688Z,37.75
2023-01-19T07:17:42.675Z,39.95
2023-01-19T07:20:13.012Z,39.28
2023-01-19T07:22:41.317Z,35.58
2023-01-19T07:25:08.836Z,35.53
2023-01-19T07:27:35.643Z,37.30
2023-01-19T07:30:02.783Z,33.60
2023-01-19T07:32:29.546Z,33.67
2023-01-19T07:34:56.840Z,31.25
2023-01-19T07:37:23.708Z,32.88
2023-01-19T07:39:50.840Z,31.48
2023-01-19T07:42:17.800Z,30.35
2023-01-19T07:44:44.842Z,30.33
2023-01-19T07:47:12.748Z,28.95
2023-01-19T07:49:40.128Z,27.67
2023-01-19T07:52:07.062Z,27.30
2023-01-19T07:54:34.418Z,27.08
2023-01-19T07:57:01.170Z,27.77
2023-01-19T07:59:30.305Z,25.20
2023-01-19T08:01:59.565Z,24.65
2023-01-19T08:04:27.378Z,24.95
2023-01-19T08:06:54.432Z,24.83
2023-01-19T08:09:21.660Z,23.08
2023-01-19T08:11:48.413Z,21.92
2023-01-19T08:14:15.508Z,22.75
2023-01-19T08:16:42.253Z,22.77
2023-01-19T08:19:09.426Z,21.15
2023-01-19T08:21:36.457Z,22.70
2023-01-19T08:24:03.613Z,20.63
2023-01-19T08:26:32.345Z,21.42
2023-01-19T08:29:01.682Z,20.50
2023-01-19T08:31:28.661Z,20.77
2023-01-19T08:33:55.911Z,19.23
2023-01-19T08:36:23.868Z,20.13
2023-01-19T08:38:51.084Z,18.90
2023-01-19T08:41:17.855Z,19.83
2023-01-19T08:43:45.530Z,19.95
2023-01-19T08:46:12.507Z,18.00
2023-01-19T08:48:40.072Z,20.38
2023-01-19T08:51:06.937Z,17.90
2023-01-19T08:53:34.718Z,17.35
2023-01-19T08:56:02.320Z,17.30
2023-01-19T08:58:29.432Z,17.63
2023-01-19T09:00:56.310Z,18.00
2023-01-19T09:03:23.462Z,17.52
2023-01-19T09:05:50.432Z,17.60
2023-01-19T09:08:17.544Z,16.00
2023-01-19T09:10:46.302Z,16.60
2023-01-19T09:13:13.508Z,16.65
2023-01-19T09:15:40.459Z,15.32
2023-01-19T09:18:13.617Z,15.50
2023-01-19T09:20:44.461Z,13.95
2023-01-19T09:23:12.504Z,16.17
2023-01-19T09:25:39.826Z,14.52
2023-01-19T09:28:07.851Z,15.20
2023-01-19T09:30:36.758Z,14.63
2023-01-19T09:33:06.348Z,14.55
2023-01-19T09:35:36.988Z,14.75
2023-01-19T09:38:04.285Z,14.50
2023-01-19T09:40:31.177Z,14.20
2023-01-19T09:43:05.024Z,14.77
2023-01-19T09:45:36.186Z,14.35
2023-01-19T09:48:16.031Z,14.05
2023-01-19T09:50:47.455Z,13.85
2023-01-19T09:53:17.910Z,14.35
2023-01-19T09:55:44.794Z,12.70
2023-01-19T09:58:16.469Z,12.45
2023-01-19T10:00:44.643Z,12.75
2023-01-19T10:03:15.677Z,12.77
2023-01-19T10:05:49.520Z,13.40
2023-01-19T10:08:18.623Z,12.57
2023-01-19T10:10:53.259Z,13.05
2023-01-19T10:13:39.047Z,11.85
2023-01-19T10:16:33.965Z,12.05
2023-01-19T10:19:03.194Z,11.37
2023-01-19T10:21:33.750Z,12.25
2023-01-19T10:24:20.551Z,10.85
2023-01-19T10:26:52.548Z,11.75
2023-01-19T10:29:42.257Z,10.85
2023-01-19T10:32:17.073Z,11.07
2023-01-19T10:34:44.256Z,13.80
2023-01-19T10:37:31.880Z,11.82
2023-01-19T10:40:19.925Z,10.98
2023-01-19T10:42:46.901Z,10.85
2023-01-19T10:45:24.528Z,12.63
2023-01-19T10:47:52.802Z,10.88
2023-01-19T10:50:30.797Z,10.35
2023-01-19T10:52:59.617Z,11.23
2023-01-19T10:55:34.254Z,11.77
2023-01-19T10:58:01.460Z,11.52
2023-01-19T11:00:30.030Z,10.48
2023-01-19T11:02:56.916Z,12.10
2023-01-19T11:05:28.702Z,11.38
2023-01-19T11:07:56.303Z,10.95
2023-01-19T11:10:25.005Z,11.98
2023-01-19T11:13:12.545Z,11.63
2023-01-19T11:15:49.159Z,11.45
2023-01-19T11:18:35.994Z,11.43
2023-01-19T11:21:14.009Z,11.60
2023-01-19T11:23:51.265Z,10.90
2023-01-19T11:26:25.481Z,10.73
2023-01-19T11:28:54.638Z,10.45
2023-01-19T11:31:33.199Z,10.70
2023-01-19T11:34:05.103Z,11.23
2023-01-19T11:36:34.410Z,11.23
2023-01-19T11:39:15.931Z,11.63
2023-01-19T11:41:43.548Z,10.95
2023-01-19T11:44:29.205Z,11.15
2023-01-19T11:47:01.179Z,11.10
2023-01-19T11:49:46.680Z,12.88
2023-01-19T11:52:43.923Z,11.88
2023-01-19T11:55:17.628Z,11.48
2023-01-19T11:57:49.260Z,12.63
2023-01-19T12:00:36.490Z,12.02
2023-01-19T12:03:14.480Z,12.55
2023-01-19T12:05:42.432Z,11.45
2023-01-19T12:08:40.847Z,11.18
2023-01-19T12:11:08.785Z,10.95
2023-01-19T12:13:35.929Z,12.57
2023-01-19T12:16:12.209Z,11.90
2023-01-19T12:18:45.097Z,12.90
2023-01-19T12:21:12.219Z,11.50
2023-01-19T12:23:54.670Z,12.20
2023-01-19T12:26:36.865Z,10.50
2023-01-19T12:29:24.269Z,10.85
2023-01-19T12:32:21.951Z,11.43
2023-01-19T12:34:49.901Z,10.85
2023-01-19T12:37:36.274Z,11.82
2023-01-19T12:40:22.045Z,11.80
2023-01-19T12:43:01.829Z,10.80
2023-01-19T12:45:33.059Z,10.50
2023-01-19T12:47:59.887Z,10.77
2023-01-19T12:50:29.297Z,10.52
2023-01-19T12:52:58.462Z,11.68
2023-01-19T12:55:25.659Z,11.13
2023-01-19T12:58:07.743Z,10.60
2023-01-19T13:00:38.925Z,12.10
2023-01-19T13:03:17.966Z,12.18
2023-01-19T13:05:45.008Z,11.88
2023-01-19T13:08:12.631Z,12.93
2023-01-19T13:11:09.688Z,11.57
2023-01-19T13:13:37.172Z,10.63
2023-01-19T13:16:19.805Z,11.65
2023-01-19T13:18:53.431Z,11.80
2023-01-19T13:21:34.155Z,11.65
2023-01-19T13:24:05.216Z,11.75
2023-01-19T13:26:33.884Z,11.10
2023-01-19T13:29:15.823Z,11.77
2023-01-19T13:31:44.643Z,12.18
2023-01-19T13:34:16.958Z,10.40
2023-01-19T13:36:45.574Z,11.15
2023-01-19T13:39:17.682Z,11.50
2023-01-19T13:41:45.595Z,11.40
2023-01-19T13:44:19.294Z,10.68
2023-01-19T13:46:47.093Z,10.55
2023-01-19T13:49:19.996Z,11.35
2023-01-19T13:52:03.936Z,10.77
2023-01-19T13:54:30.747Z,11.63
2023-01-19T13:56:57.809Z,11.57
2023-01-19T13:59:24.550Z,10.18
2023-01-19T14:01:54.252Z,10.95
2023-01-19T14:04:32.194Z,10.88
2023-01-19T14:07:04.423Z,11.20
2023-01-19T14:09:31.308Z,10.50
2023-01-19T14:12:11.893Z,9.68
2023-01-19T14:14:38.718Z,10.35
2023-01-19T14:17:17.880Z,9.65
2023-01-19T14:19:48.104Z,10.68
2023-01-19T14:22:15.316Z,9.73
2023-01-19T14:24:42.123Z,10.05
2023-01-19T14:27:20.507Z,10.65
2023-01-19T14:29:50.002Z,10.93
2023-01-19T14:32:18.178Z,9.68
2023-01-19T14:34:46.883Z,10.40
2023-01-19T14:37:21.194Z,9.80
2023-01-19T14:40:01.301Z,10.20
2023-01-19T14:42:47.867Z,10.57
2023-01-19T14:45:17.548Z,10.63
2023-01-19T14:47:45.012Z,10.27
2023-01-19T14:50:23.976Z,9.98
2023-01-19T14:53:02.345Z,10.45
2023-01-19T14:55:33.908Z,10.00
2023-01-19T14:58:01.355Z,11.00
2023-01-19T15:00:28.198Z,10.13
2023-01-19T15:02:55.357Z,11.35
2023-01-19T15:05:22.225Z,10.50
2023-01-19T15:07:49.449Z,11.00
2023-01-19T15:10:20.637Z,11.00
2023-01-19T15:12:48.753Z,10.18
2023-01-19T15:15:17.385Z,10.98
2023-01-19T15:17:44.562Z,10.30
2023-01-19T15:20:16.294Z,10.48
2023-01-19T15:22:44.007Z,11.07
2023-01-19T15:25:19.333Z,10.80
2023-01-19T15:27:46.703Z,11.70
2023-01-19T15:30:21.228Z,11.15
2023-01-19T15:32:48.480Z,11.75
2023-01-19T15:35:22.600Z,11.15
2023-01-19T15:37:50.100Z,11.73
2023-01-19T15:40:17.689Z,11.63
2023-01-19T15:42:44.992Z,12.00
2023-01-19T15:45:38.584Z,13.13
2023-01-19T15:48:07.466Z,13.73
2023-01-19T15:50:36.157Z,16.00
2023-01-19T15:53:03.407Z,17.33
2023-01-19T15:55:30.239Z,16.58
2023-01-19T15:58:03.483Z,18.75
2023-01-19T16:00:31.557Z,20.50
2023-01-19T16:02:59.004Z,20.15
2023-01-19T16:05:37.446Z,19.67
2023-01-19T16:08:10.234Z,21.30
2023-01-19T16:10:37.040Z,20.80
2023-01-19T16:13:04.232Z,21.27
2023-01-19T16:15:31.040Z,22.83
2023-01-19T16:17:58.494Z,22.80
2023-01-19T16:20:25.375Z,22.38
2023-01-19T16:22:54.866Z,21.98
2023-01-19T16:25:23.513Z,21.95
2023-01-19T16:27:50.717Z,21.55
2023-01-19T16:30:19.389Z,23.15
2023-01-19T16:32:46.754Z,24.05
2023-01-19T16:35:15.556Z,23.33
2023-01-19T16:37:42.677Z,22.45
2023-01-19T16:40:10.289Z,25.98
2023-01-19T16:42:37.593Z,22.33
2023-01-19T16:45:04.655Z,22.77
2023-01-19T16:47:31.793Z,23.05
2023-01-19T16:49:58.561Z,24.13
2023-01-19T16:52:25.683Z,24.77
2023-01-19T16:54:54.739Z,24.98
2023-01-19T16:57:21.840Z,23.50
2023-01-19T16:59:50.583Z,23.83
2023-01-19T17:02:18.065Z,24.45
2023-01-19T17:04:44.905Z,23.35
2023-01-19T17:07:11.990Z,22.60
2023-01-19T17:09:39.017Z,23.60
2023-01-19T17:12:09.198Z,24.98
2023-01-19T17:14:37.402Z,23.67
2023-01-19T17:17:05.117Z,23.42
2023-01-19T17:19:31.982Z,25.35
2023-01-19T17:21:59.118Z,24.58
2023-01-19T17:24:25.960Z,23.25
2023-01-19T17:26:53.083Z,25.23
2023-01-19T17:29:19.863Z,24.52
2023-01-19T17:31:47.978Z,23.40
2023-01-19T17:34:14.815Z,22.45
2023-01-19T17:36:41.910Z,23.20
2023-01-19T17:39:11.311Z,22.65
2023-01-19T17:41:38.577Z,25.17
2023-01-19T17:44:05.761Z,24.75
2023-01-19T17:46:35.625Z,23.52
2023-01-19T17:49:03.609Z,24.20
2023-01-19T17:51:30.820Z,24.40
2023-01-19T17:53:57.725Z,25.77
2023-01-19T17:56:29.484Z,25.13
2023-01-19T17:58:57.060Z,24.05
2023-01-19T18:01:25.943Z,24.08
2023-01-19T18:03:53.136Z,25.77
2023-01-19T18:06:20.375Z,24.58
2023-01-19T18:08:47.498Z,25.48
2023-01-19T18:11:15.189Z,23.58
2023-01-19T18:13:42.936Z,24.38
2023-01-19T18:16:14.932Z,25.63
2023-01-19T18:18:42.086Z,24.17
2023-01-19T18:21:10.724Z,24.23
2023-01-19T18:23:37.510Z,24.00
2023-01-19T18:26:13.248Z,24.85
2023-01-19T18:31:12.615Z,23.92
2023-01-19T18:33:39.985Z,24.00
2023-01-19T18:36:07.831Z,23.67
2023-01-19T18:38:34.673Z,22.58
2023-01-19T18:41:05.367Z,23.67
2023-01-19T18:43:32.151Z,23.02
2023-01-19T18:45:59.334Z,24.05
2023-01-19T18:48:26.272Z,24.10
2023-01-19T18:50:53.527Z,24.83
2023-01-19T18:53:20.527Z,23.75
2023-01-19T18:55:56.032Z,22.85
2023-01-19T18:58:23.019Z,24.30
2023-01-19T19:00:50.457Z,23.75
2023-01-19T19:03:17.376Z,25.30
2023-01-19T19:05:44.516Z,24.17
2023-01-19T19:08:11.416Z,24.67
2023-01-19T19:10:40.463Z,25.50
2023-01-19T19:13:07.807Z,25.55
2023-01-19T19:15:34.928Z,25.63
2023-01-19T19:18:01.787Z,26.95
2023-01-19T19:20:28.960Z,25.65
2023-01-19T19:22:56.001Z,26.25
2023-01-19T19:25:23.287Z,25.70
2023-01-19T19:27:51.434Z,26.60
2023-01-19T19:30:19.784Z,29.58
2023-01-19T19:32:59.983Z,27.65
2023-01-19T19:35:27.132Z,28.33
2023-01-19T19:37:57.496Z,30.00
2023-01-19T19:40:25.715Z,29.45
2023-01-19T19:42:52.545Z,30.58
2023-01-19T19:45:19.611Z,30.30
2023-01-19T19:47:46.443Z,33.08
2023-01-19T19:50:14.233Z,31.50
2023-01-19T19:52:41.547Z,34.17
2023-01-19T19:55:09.634Z,33.47
2023-01-19T19:57:36.569Z,32.45
2023-01-19T20:00:05.292Z,34.67
2023-01-19T20:02:32.480Z,34.28
2023-01-19T20:04:59.766Z,33.88
2023-01-19T20:07:26.584Z,33.55
2023-01-19T20:09:55.194Z,33.97
2023-01-19T20:12:22.228Z,31.77
2023-01-19T20:14:49.482Z,32.30
2023-01-19T20:17:16.317Z,30.73
2023-01-19T20:19:45.642Z,33.83
2023-01-19T20:22:12.484Z,31.23
2023-01-19T20:24:39.640Z,30.77
2023-01-19T20:27:06.419Z,32.10
2023-01-19T20:29:33.586Z,32.33
2023-01-19T20:32:00.694Z,33.10
2023-01-19T20:34:32.109Z,30.83
2023-01-19T20:37:00.748Z,30.65
2023-01-19T20:39:30.029Z,29.58
2023-01-19T20:41:56.951Z,29.92
2023-01-19T20:44:25.099Z,30.17
2023-01-19T20:46:52.440Z,32.33
2023-01-19T20:49:19.681Z,30.40
2023-01-19T20:51:46.996Z,29.08
2023-01-19T20:54:16.359Z,28.95
2023-01-19T20:56:43.189Z,29.38
2023-01-19T20:59:10.732Z,30.42
2023-01-19T21:01:37.750Z,31.58
2023-01-19T21:04:05.128Z,31.92
2023-01-19T21:06:32.002Z,30.25
2023-01-19T21:08:59.124Z,30.75
2023-01-19T21:11:26.149Z,29.85
2023-01-19T21:13:56.156Z,29.05
2023-01-19T21:16:24.380Z,30.33
2023-01-19T21:18:51.641Z,30.65
2023-01-19T21:21:29.762Z,34.33
2023-01-19T21:23:57.615Z,34.25
2023-01-19T21:26:24.407Z,34.78
2023-01-19T21:28:51.590Z,34.72
2023-01-19T21:31:18.573Z,36.35
2023-01-19T21:33:45.902Z,37.67
2023-01-19T21:36:12.878Z,40.55
2023-01-19T21:38:39.974Z,40.90
2023-01-19T21:41:08.101Z,40.10
2023-01-19T21:43:36.363Z,40.97
2023-01-19T21:46:11.145Z,40.95
2023-01-19T21:48:38.372Z,40.95
2023-01-19T21:51:05.281Z,39.45
2023-01-19T21:53:32.442Z,40.40
2023-01-19T21:56:00.355Z,39.97
2023-01-19T21:58:27.647Z,39.47
2023-01-19T22:01:06.028Z,37.83
2023-01-19T22:03:33.378Z,38.42
2023-01-19T22:06:10.762Z,40.35
2023-01-19T22:08:38.153Z,39.22
2023-01-19T22:11:09.452Z,40.50
2023-01-19T22:13:38.615Z,37.72
2023-01-19T22:16:10.436Z,37.55
2023-01-19T22:18:38.477Z,40.92
2023-01-19T22:21:09.635Z,38.50
2023-01-19T22:23:36.804Z,36.85
2023-01-19T22:26:04.369Z,38.30
2023-01-19T22:28:31.684Z,37.53
2023-01-19T22:31:09.220Z,37.90
2023-01-19T22:33:36.525Z,35.83
2023-01-19T22:36:10.219Z,35.35
2023-01-19T22:38:39.797Z,35.88
2023-01-19T22:41:19.944Z,36.63
2023-01-19T22:43:47.982Z,35.10
2023-01-19T22:46:21.814Z,35.33
2023-01-19T22:48:49.126Z,34.92
2023-01-19T22:51:16.384Z,33.55
2023-01-19T22:53:43.624Z,34.05
2023-01-19T22:56:17.842Z,34.00
2023-01-19T22:58:45.152Z,33.88
2023-01-19T23:01:17.023Z,33.85
2023-01-19T23:03:44.318Z,33.08
2023-01-19T23:06:16.068Z,33.72
2023-01-19T23:08:43.416Z,33.38
2023-01-19T23:11:12.257Z,34.05
2023-01-19T23:13:39.356Z,33.78
2023-01-19T23:16:06.634Z,32.67
2023-01-19T23:18:33.715Z,33.30
2023-01-19T23:21:11.835Z,34.53
2023-01-19T23:23:38.981Z,32.47
2023-01-19T23:26:07.942Z,30.58
2023-01-19T23:28:36.656Z,32.70
2023-01-19T23:31:23.693Z,31.92
2023-01-19T23:34:07.392Z,31.80
2023-01-19T23:36:35.749Z,32.05
2023-01-19T23:39:04.944Z,31.75
2023-01-19T23:41:33.194Z,32.38
2023-01-19T23:44:00.608Z,30.60
2023-01-19T23:46:27.785Z,30.27
2023-01-19T23:48:54.920Z,30.63
2023-01-19T23:51:26.185Z,32.03
2023-01-19T23:53:53.494Z,31.00
2023-01-19T23:56:22.069Z,32.30
2023-01-19T23:58:56.063Z,32.03
